createdAt,value
2018-07-05T00:00:24.079Z,97082.00
2018-07-05T00:03:28.624Z,97073.00
2018-07-05T00:06:33.260Z,97074.00
2018-07-05T00:09:37.504Z,97075.00
2018-07-05T00:12:42.228Z,97081.00
2018-07-05T00:15:46.429Z,97078.00
2018-07-05T00:18:50.783Z,97080.00
2018-07-05T00:21:55.340Z,97084.00
2018-07-05T00:24:59.878Z,97089.00
2018-07-05T00:28:04.196Z,97074.00
2018-07-05T00:31:08.795Z,97069.00
2018-07-05T00:34:13.159Z,97073.00
2018-07-05T00:37:17.398Z,97075.00
2018-07-05T00:40:22.417Z,97065.00
2018-07-05T00:43:26.822Z,97066.00
2018-07-05T00:46:30.992Z,97069.00
2018-07-05T00:49:35.989Z,97054.00
2018-07-05T00:52:40.911Z,97065.00
2018-07-05T00:55:45.265Z,97056.00
2018-07-05T00:58:49.464Z,97052.00
2018-07-05T01:01:53.940Z,97056.00
2018-07-05T01:04:59.694Z,97053.00
2018-07-05T01:07:58.148Z,97049.00
2018-07-05T01:11:02.437Z,97048.00
2018-07-05T01:14:06.740Z,97044.00
2018-07-05T01:17:12.275Z,97038.00
2018-07-05T01:20:16.529Z,97037.00
2018-07-05T01:23:21.015Z,97025.00
2018-07-05T01:26:26.344Z,97029.00
2018-07-05T01:29:30.724Z,97021.00
2018-07-05T01:32:35.908Z,97018.00
2018-07-05T01:35:42.009Z,97024.00
2018-07-05T01:38:46.553Z,97010.00
2018-07-05T01:41:51.052Z,97016.00
2018-07-05T01:44:55.299Z,97020.00
2018-07-05T01:47:59.717Z,97022.00
2018-07-05T01:51:04.066Z,97015.00
2018-07-05T01:54:08.887Z,97009.00
2018-07-05T01:57:13.112Z,97016.00
2018-07-05T02:03:41.400Z,97009.00
2018-07-05T02:06:45.525Z,97017.00
2018-07-05T02:09:50.602Z,97015.00
2018-07-05T02:12:54.928Z,97016.00
2018-07-05T02:15:59.377Z,97007.00
2018-07-05T02:19:04.230Z,97002.00
2018-07-05T02:22:08.493Z,97006.00
2018-07-05T02:25:13.661Z,96997.00
2018-07-05T02:28:17.993Z,97001.00
2018-07-05T02:31:22.183Z,96998.00
2018-07-05T02:34:27.824Z,97000.00
2018-07-05T02:37:37.355Z,96996.00
2018-07-05T02:40:41.792Z,96988.00
2018-07-05T02:43:46.189Z,96988.00
2018-07-05T02:46:51.725Z,96999.00
2018-07-05T02:49:56.220Z,97007.00
2018-07-05T02:53:00.620Z,97004.00
2018-07-05T02:56:04.884Z,97004.00
2018-07-05T02:59:09.179Z,97007.00
2018-07-05T03:02:13.461Z,97013.00
2018-07-05T03:05:17.640Z,97009.00
2018-07-05T03:08:21.925Z,97009.00
2018-07-05T03:11:26.414Z,97016.00
2018-07-05T03:14:31.759Z,97010.00
2018-07-05T03:17:36.953Z,97004.00
2018-07-05T03:20:43.374Z,97007.00
2018-07-05T03:23:47.686Z,97007.00
2018-07-05T03:26:53.716Z,97013.00
2018-07-05T03:29:58.110Z,97009.00
2018-07-05T03:33:02.285Z,97008.00
2018-07-05T03:36:06.820Z,97012.00
2018-07-05T03:39:11.200Z,97009.00
2018-07-05T03:42:16.517Z,97010.00
2018-07-05T03:45:26.345Z,97011.00
2018-07-05T03:48:31.283Z,97013.00
2018-07-05T03:51:37.579Z,97006.00
2018-07-05T03:54:43.964Z,97010.00
2018-07-05T03:57:49.292Z,97007.00
2018-07-05T04:00:54.367Z,97004.00
2018-07-05T04:03:58.898Z,96993.00
2018-07-05T04:07:04.593Z,97010.00
2018-07-05T04:10:08.900Z,96996.00
2018-07-05T04:13:07.411Z,97006.00
2018-07-05T04:16:11.680Z,97003.00
2018-07-05T04:19:15.963Z,97002.00
2018-07-05T04:22:20.718Z,97006.00
2018-07-05T04:25:26.430Z,97014.00
2018-07-05T04:28:31.034Z,97011.00
2018-07-05T04:31:36.256Z,97013.00
2018-07-05T04:34:41.238Z,97024.00
2018-07-05T04:37:46.243Z,97014.00
2018-07-05T04:40:52.090Z,97009.00
2018-07-05T04:43:57.276Z,97008.00
2018-07-05T04:47:01.928Z,97009.00
2018-07-05T04:50:07.735Z,97002.00
2018-07-05T04:53:12.243Z,97008.00
2018-07-05T04:56:17.132Z,97008.00
2018-07-05T04:59:24.201Z,97004.00
2018-07-05T05:02:29.648Z,97012.00
2018-07-05T05:05:34.343Z,97004.00
2018-07-05T05:08:40.950Z,97012.00
2018-07-05T05:11:46.017Z,97011.00
2018-07-05T05:14:51.215Z,97008.00
2018-07-05T05:17:56.484Z,97001.00
2018-07-05T05:21:03.062Z,97002.00
2018-07-05T05:24:07.497Z,97001.00
2018-07-05T05:27:11.856Z,96988.00
2018-07-05T05:30:16.220Z,96989.00
2018-07-05T05:33:21.513Z,96993.00
2018-07-05T05:36:21.725Z,96993.00
2018-07-05T05:39:26.413Z,96982.00
2018-07-05T05:42:30.791Z,96982.00
2018-07-05T05:45:35.344Z,96985.00
2018-07-05T05:48:41.869Z,96990.00
2018-07-05T05:51:46.280Z,96997.00
2018-07-05T05:54:51.564Z,96980.00
2018-07-05T05:57:57.602Z,96990.00
2018-07-05T06:01:01.837Z,96988.00
2018-07-05T06:04:06.026Z,96998.00
2018-07-05T06:07:10.418Z,96984.00
2018-07-05T06:10:14.846Z,96988.00
2018-07-05T06:13:20.495Z,96991.00
2018-07-05T06:16:24.860Z,96988.00
2018-07-05T06:19:29.232Z,97000.00
2018-07-05T06:22:34.174Z,96996.00
2018-07-05T06:25:39.083Z,96987.00
2018-07-05T06:28:43.566Z,97000.00
2018-07-05T06:31:42.168Z,96990.00
2018-07-05T06:34:46.554Z,96993.00
2018-07-05T06:37:51.532Z,96986.00
2018-07-05T06:40:56.206Z,96996.00
2018-07-05T06:44:00.616Z,96987.00
2018-07-05T06:47:04.865Z,96991.00
2018-07-05T06:50:09.207Z,96990.00
2018-07-05T06:53:13.731Z,96985.00
2018-07-05T06:56:18.179Z,96985.00
2018-07-05T06:59:24.149Z,96996.00
2018-07-05T07:02:28.747Z,96997.00
2018-07-05T07:05:34.133Z,96985.00
2018-07-05T07:08:38.420Z,96982.00
2018-07-05T07:11:43.797Z,96985.00
2018-07-05T07:14:48.301Z,96984.00
2018-07-05T07:17:53.510Z,96977.00
2018-07-05T07:20:58.288Z,96992.00
2018-07-05T07:24:04.104Z,96976.00
2018-07-05T07:27:09.285Z,96968.00
2018-07-05T07:30:15.332Z,96971.00
2018-07-05T07:33:21.530Z,96972.00
2018-07-05T07:36:26.232Z,96974.00
2018-07-05T07:39:32.656Z,96968.00
2018-07-05T07:42:18.624Z,96969.00
2018-07-05T07:44:58.561Z,96968.00
2018-07-05T07:47:38.265Z,96978.00
2018-07-05T07:50:17.874Z,96978.00
2018-07-05T07:52:58.455Z,96979.00
2018-07-05T07:55:38.007Z,96973.00
2018-07-05T07:58:17.992Z,96968.00
2018-07-05T08:00:58.249Z,96977.00
2018-07-05T08:03:39.664Z,96980.00
2018-07-05T08:06:21.565Z,96981.00
2018-07-05T08:09:01.381Z,96979.00
2018-07-05T08:11:46.361Z,96967.00
2018-07-05T08:14:27.012Z,96972.00
2018-07-05T08:17:07.308Z,96973.00
2018-07-05T08:19:46.920Z,96971.00
2018-07-05T08:22:27.628Z,96972.00
2018-07-05T08:25:07.236Z,96967.00
2018-07-05T08:27:48.492Z,96972.00
2018-07-05T08:30:28.437Z,96973.00
2018-07-05T08:33:08.044Z,96974.00
2018-07-05T08:35:47.589Z,96973.00
2018-07-05T08:38:27.189Z,96969.00
2018-07-05T08:41:08.091Z,96969.00
2018-07-05T08:43:48.854Z,96965.00
2018-07-05T08:46:28.727Z,96977.00
2018-07-05T08:49:08.284Z,96976.00
2018-07-05T08:51:48.322Z,96975.00
2018-07-05T08:54:28.297Z,96964.00
2018-07-05T08:57:07.924Z,96976.00
2018-07-05T08:59:47.568Z,96984.00
2018-07-05T09:02:27.531Z,96974.00
2018-07-05T09:05:06.939Z,96974.00
2018-07-05T09:07:46.588Z,96972.00
2018-07-05T09:10:26.306Z,96972.00
2018-07-05T09:13:05.890Z,96961.00
2018-07-05T09:15:45.435Z,96963.00
2018-07-05T09:18:28.058Z,96975.00
2018-07-05T09:21:09.392Z,96969.00
2018-07-05T09:23:49.245Z,96966.00
2018-07-05T09:26:29.117Z,96969.00
2018-07-05T09:29:08.788Z,96967.00
2018-07-05T09:31:49.307Z,96962.00
2018-07-05T09:34:29.859Z,96974.00
2018-07-05T09:37:09.372Z,96962.00
2018-07-05T09:39:50.387Z,96960.00
2018-07-05T09:42:30.728Z,96962.00
2018-07-05T09:45:10.247Z,96964.00
2018-07-05T09:47:50.458Z,96958.00
2018-07-05T09:50:30.192Z,96956.00
2018-07-05T09:53:10.557Z,96959.00
2018-07-05T09:55:51.688Z,96962.00
2018-07-05T09:58:31.173Z,96957.00
2018-07-05T10:01:11.760Z,96955.00
2018-07-05T10:03:51.864Z,96946.00
2018-07-05T10:06:32.421Z,96948.00
2018-07-05T10:09:13.524Z,96952.00
2018-07-05T10:11:53.241Z,96943.00
2018-07-05T10:14:32.727Z,96947.00
2018-07-05T10:17:12.380Z,96938.00
2018-07-05T10:19:52.116Z,96937.00
2018-07-05T10:22:31.689Z,96933.00
2018-07-05T10:25:11.193Z,96935.00
2018-07-05T10:27:51.973Z,96935.00
2018-07-05T10:30:51.919Z,96928.00
2018-07-05T10:33:46.785Z,96938.00
2018-07-05T10:36:26.516Z,96922.00
2018-07-05T10:39:06.056Z,96927.00
2018-07-05T10:42:07.141Z,96934.00
2018-07-05T10:45:17.843Z,96924.00
2018-07-05T10:48:24.300Z,96919.00
2018-07-05T10:51:28.807Z,96920.00
2018-07-05T10:54:35.195Z,96911.00
2018-07-05T10:57:40.580Z,96916.00
2018-07-05T11:00:45.584Z,96912.00
2018-07-05T11:03:50.411Z,96909.00
2018-07-05T11:06:55.080Z,96912.00
2018-07-05T11:09:59.484Z,96910.00
2018-07-05T11:13:03.957Z,96907.00
2018-07-05T11:16:08.533Z,96901.00
2018-07-05T11:19:14.671Z,96904.00
2018-07-05T11:22:20.417Z,96895.00
2018-07-05T11:25:25.653Z,96891.00
2018-07-05T11:28:31.112Z,96885.00
2018-07-05T11:31:38.918Z,96889.00
2018-07-05T11:34:43.457Z,96891.00
2018-07-05T11:37:48.573Z,96888.00
2018-07-05T11:40:53.250Z,96888.00
2018-07-05T11:43:57.762Z,96884.00
2018-07-05T11:46:57.586Z,96890.00
2018-07-05T11:50:02.948Z,96874.00
2018-07-05T11:53:07.422Z,96876.00
2018-07-05T11:56:11.736Z,96871.00
2018-07-05T11:59:16.041Z,96865.00
2018-07-05T12:02:21.240Z,96864.00
2018-07-05T12:05:26.396Z,96865.00
2018-07-05T12:08:31.691Z,96860.00
2018-07-05T12:11:36.799Z,96861.00
2018-07-05T12:14:41.166Z,96856.00
2018-07-05T12:17:45.636Z,96859.00
2018-07-05T12:20:50.696Z,96856.00
2018-07-05T12:23:56.197Z,96843.00
2018-07-05T12:27:01.085Z,96847.00
2018-07-05T12:30:05.989Z,96837.00
2018-07-05T12:33:10.519Z,96835.00
2018-07-05T12:36:15.277Z,96838.00
2018-07-05T12:39:20.422Z,96842.00
2018-07-05T12:42:27.067Z,96841.00
2018-07-05T12:45:31.400Z,96843.00
2018-07-05T12:48:35.825Z,96830.00
2018-07-05T12:51:40.304Z,96823.00
2018-07-05T12:54:46.591Z,96825.00
2018-07-05T12:57:53.692Z,96823.00
2018-07-05T13:00:57.816Z,96831.00
2018-07-05T13:04:02.227Z,96830.00
2018-07-05T13:07:06.668Z,96826.00
2018-07-05T13:10:12.206Z,96821.00
2018-07-05T13:13:10.724Z,96830.00
2018-07-05T13:16:14.964Z,96823.00
2018-07-05T13:19:20.286Z,96820.00
2018-07-05T13:22:24.914Z,96822.00
2018-07-05T13:25:29.413Z,96826.00
2018-07-05T13:28:34.217Z,96822.00
2018-07-05T13:31:38.730Z,96820.00
2018-07-05T13:34:43.045Z,96811.00
2018-07-05T13:37:47.428Z,96812.00
2018-07-05T13:40:56.894Z,96821.00
2018-07-05T13:44:02.116Z,96809.00
2018-07-05T13:47:08.918Z,96812.00
2018-07-05T13:50:16.111Z,96804.00
2018-07-05T13:53:21.355Z,96804.00
2018-07-05T13:56:26.064Z,96800.00
2018-07-05T13:59:31.036Z,96803.00
2018-07-05T14:02:37.574Z,96796.00
2018-07-05T14:05:43.527Z,96803.00
2018-07-05T14:08:48.444Z,96791.00
2018-07-05T14:11:54.589Z,96796.00
2018-07-05T14:14:59.188Z,96792.00
2018-07-05T14:18:03.995Z,96790.00
2018-07-05T14:21:08.674Z,96794.00
2018-07-05T14:24:13.417Z,96791.00
2018-07-05T14:27:17.884Z,96785.00
2018-07-05T14:30:24.075Z,96792.00
2018-07-05T14:33:28.576Z,96779.00
2018-07-05T14:36:33.049Z,96786.00
2018-07-05T14:39:37.988Z,96778.00
2018-07-05T14:42:43.410Z,96767.00
2018-07-05T14:45:47.966Z,96764.00
2018-07-05T14:48:54.392Z,96764.00
2018-07-05T14:51:59.677Z,96757.00
2018-07-05T14:55:04.104Z,96758.00
2018-07-05T14:58:08.824Z,96753.00
2018-07-05T15:01:14.024Z,96759.00
2018-07-05T15:04:19.013Z,96743.00
2018-07-05T15:07:24.384Z,96752.00
2018-07-05T15:10:31.400Z,96747.00
2018-07-05T15:13:35.872Z,96744.00
2018-07-05T15:16:41.099Z,96739.00
2018-07-05T15:19:50.443Z,96735.00
2018-07-05T15:22:56.924Z,96743.00
2018-07-05T15:26:01.226Z,96735.00
2018-07-05T15:29:06.779Z,96729.00
2018-07-05T15:32:11.295Z,96721.00
2018-07-05T15:35:15.762Z,96729.00
2018-07-05T15:38:20.525Z,96724.00
2018-07-05T15:41:24.900Z,96726.00
2018-07-05T15:44:30.366Z,96724.00
2018-07-05T15:47:34.751Z,96723.00
2018-07-05T15:50:41.101Z,96716.00
2018-07-05T15:53:45.581Z,96714.00
2018-07-05T15:56:50.348Z,96715.00
2018-07-05T15:59:54.861Z,96718.00
2018-07-05T16:03:01.700Z,96703.00
2018-07-05T16:06:08.221Z,96707.00
2018-07-05T16:09:13.032Z,96709.00
2018-07-05T16:12:17.697Z,96706.00
2018-07-05T16:15:22.355Z,96701.00
2018-07-05T16:18:26.823Z,96697.00
2018-07-05T16:21:31.381Z,96699.00
2018-07-05T16:24:36.651Z,96690.00
2018-07-05T16:27:42.388Z,96686.00
2018-07-05T16:30:48.624Z,96697.00
2018-07-05T16:33:55.281Z,96688.00
2018-07-05T16:36:59.790Z,96678.00
2018-07-05T16:40:05.760Z,96681.00
2018-07-05T16:43:11.197Z,96678.00
2018-07-05T16:46:15.724Z,96679.00
2018-07-05T16:49:22.102Z,96673.00
2018-07-05T16:52:27.564Z,96679.00
2018-07-05T16:55:26.030Z,96669.00
2018-07-05T16:58:30.493Z,96671.00
2018-07-05T17:01:34.919Z,96663.00
2018-07-05T17:04:40.279Z,96664.00
2018-07-05T17:07:45.776Z,96660.00
2018-07-05T17:10:51.801Z,96662.00
2018-07-05T17:14:04.051Z,96661.00
2018-07-05T17:17:09.280Z,96662.00
2018-07-05T17:20:15.331Z,96656.00
2018-07-05T17:23:21.035Z,96656.00
2018-07-05T17:26:28.228Z,96654.00
2018-07-05T17:29:32.873Z,96650.00
2018-07-05T17:32:38.419Z,96650.00
2018-07-05T17:35:36.984Z,96661.00
2018-07-05T17:38:41.295Z,96657.00
2018-07-05T17:41:47.987Z,96660.00
2018-07-05T17:44:54.558Z,96660.00
2018-07-05T17:48:03.216Z,96663.00
2018-07-05T17:51:07.619Z,96666.00
2018-07-05T17:54:11.977Z,96663.00
2018-07-05T17:57:16.452Z,96669.00
2018-07-05T18:00:24.035Z,96668.00
2018-07-05T18:03:29.438Z,96671.00
2018-07-05T18:06:35.502Z,96667.00
2018-07-05T18:09:42.030Z,96662.00
2018-07-05T18:12:46.914Z,96667.00
2018-07-05T18:15:51.678Z,96674.00
2018-07-05T18:18:56.286Z,96679.00
2018-07-05T18:22:01.259Z,96675.00
2018-07-05T18:25:09.764Z,96675.00
2018-07-05T18:28:14.346Z,96675.00
2018-07-05T18:31:18.807Z,96676.00
2018-07-05T18:34:24.762Z,96671.00
2018-07-05T18:37:29.293Z,96677.00
2018-07-05T18:40:34.139Z,96687.00
2018-07-05T18:43:39.615Z,96687.00
2018-07-05T18:46:44.300Z,96686.00
2018-07-05T18:49:51.540Z,96691.00
2018-07-05T18:52:59.787Z,96682.00
2018-07-05T18:56:06.056Z,96709.00
2018-07-05T18:59:12.625Z,96712.00
2018-07-05T19:02:17.602Z,96706.00
2018-07-05T19:05:22.439Z,96713.00
2018-07-05T19:08:33.283Z,96715.00
2018-07-05T19:11:37.664Z,96719.00
2018-07-05T19:14:43.277Z,96720.00
2018-07-05T19:17:47.921Z,96716.00
2018-07-05T19:20:55.284Z,96722.00
2018-07-05T19:24:03.731Z,96736.00
2018-07-05T19:27:09.214Z,96734.00
2018-07-05T19:30:18.146Z,96743.00
2018-07-05T19:33:28.862Z,96736.00
2018-07-05T19:36:35.491Z,96744.00
2018-07-05T19:39:40.965Z,96747.00
2018-07-05T19:42:46.126Z,96740.00
2018-07-05T19:45:51.129Z,96751.00
2018-07-05T19:48:55.471Z,96742.00
2018-07-05T19:52:03.457Z,96746.00
2018-07-05T19:55:08.223Z,96753.00
2018-07-05T19:58:12.668Z,96750.00
2018-07-05T20:01:16.968Z,96736.00
2018-07-05T20:04:22.693Z,96740.00
2018-07-05T20:07:28.045Z,96744.00
2018-07-05T20:10:32.852Z,96743.00
2018-07-05T20:13:39.597Z,96752.00
2018-07-05T20:16:44.924Z,96747.00
2018-07-05T20:19:53.941Z,96753.00
2018-07-05T20:22:58.921Z,96744.00
2018-07-05T20:26:03.238Z,96750.00
2018-07-05T20:29:07.856Z,96741.00
2018-07-05T20:32:14.356Z,96732.00
2018-07-05T20:35:19.090Z,96748.00
2018-07-05T20:38:25.743Z,96742.00
2018-07-05T20:41:31.257Z,96740.00
2018-07-05T20:44:35.796Z,96740.00
2018-07-05T20:47:41.557Z,96732.00
2018-07-05T20:50:45.943Z,96734.00
2018-07-05T20:53:56.552Z,96733.00
2018-07-05T20:56:55.034Z,96731.00
2018-07-05T21:00:01.118Z,96734.00
2018-07-05T21:03:07.804Z,96734.00
2018-07-05T21:06:12.102Z,96741.00
2018-07-05T21:09:18.037Z,96754.00
2018-07-05T21:12:22.995Z,96759.00
2018-07-05T21:15:28.708Z,96750.00
2018-07-05T21:18:38.755Z,96752.00
2018-07-05T21:21:43.860Z,96747.00
2018-07-05T21:24:49.312Z,96750.00
2018-07-05T21:27:54.952Z,96753.00
2018-07-05T21:31:00.281Z,96744.00
2018-07-05T21:34:04.785Z,96754.00
2018-07-05T21:37:09.341Z,96749.00
2018-07-05T21:40:14.980Z,96742.00
2018-07-05T21:43:19.320Z,96744.00
2018-07-05T21:46:23.993Z,96747.00
2018-07-05T21:49:37.251Z,96747.00
2018-07-05T21:52:42.272Z,96750.00
2018-07-05T21:55:46.617Z,96757.00
2018-07-05T21:58:51.360Z,96752.00
2018-07-05T22:01:55.783Z,96758.00
2018-07-05T22:05:04.050Z,96758.00
2018-07-05T22:08:08.703Z,96756.00
2018-07-05T22:11:15.009Z,96761.00
2018-07-05T22:14:21.366Z,96760.00
2018-07-05T22:17:31.140Z,96755.00
2018-07-05T22:20:41.557Z,96763.00
2018-07-05T22:23:52.938Z,96762.00
2018-07-05T22:26:57.265Z,96768.00
2018-07-05T22:30:07.144Z,96766.00
2018-07-05T22:33:11.853Z,96766.00
2018-07-05T22:36:18.019Z,96762.00
2018-07-05T22:39:22.481Z,96764.00
2018-07-05T22:42:27.005Z,96763.00
2018-07-05T22:45:31.444Z,96758.00
2018-07-05T22:48:35.797Z,96754.00
2018-07-05T22:51:41.292Z,96766.00
2018-07-05T22:54:45.872Z,96748.00
2018-07-05T22:57:50.093Z,96764.00
2018-07-05T23:00:57.029Z,96763.00
2018-07-05T23:04:02.453Z,96766.00
2018-07-05T23:07:06.827Z,96754.00
2018-07-05T23:10:13.082Z,96755.00
2018-07-05T23:13:18.737Z,96745.00
2018-07-05T23:16:24.136Z,96750.00
2018-07-05T23:19:29.932Z,96748.00
2018-07-05T23:22:35.774Z,96756.00
2018-07-05T23:25:40.141Z,96749.00
2018-07-05T23:28:45.853Z,96750.00
2018-07-05T23:31:51.831Z,96758.00
2018-07-05T23:34:56.870Z,96750.00
2018-07-05T23:38:01.324Z,96756.00
2018-07-05T23:41:05.968Z,96759.00
2018-07-05T23:44:11.320Z,96765.00
2018-07-05T23:47:16.249Z,96768.00
2018-07-05T23:50:22.271Z,96763.00
2018-07-05T23:53:27.220Z,96755.00
2018-07-05T23:56:32.572Z,96747.00
2018-07-05T23:59:37.474Z,96752.00
